createdAt,value
2019-03-24T00:00:31.286Z,71.48
2019-03-24T00:01:40.649Z,71.99
2019-03-24T00:02:32.258Z,71.27
2019-03-24T00:03:31.357Z,71.37
2019-03-24T00:04:31.284Z,71.69
2019-03-24T00:05:31.236Z,71.27
2019-03-24T00:06:31.208Z,71.48
2019-03-24T00:07:31.209Z,72.30
2019-03-24T00:08:31.194Z,71.72
2019-03-24T00:09:31.187Z,72.64
2019-03-24T00:10:31.178Z,72.09
2019-03-24T00:11:31.196Z,72.61
2019-03-24T00:12:31.155Z,72.54
2019-03-24T00:13:31.152Z,73.16
2019-03-24T00:14:31.142Z,73.16
2019-03-24T00:15:31.146Z,73.36
2019-03-24T00:16:31.108Z,73.26
2019-03-24T00:17:31.115Z,73.16
2019-03-24T00:18:31.161Z,74.40
2019-03-24T00:19:31.073Z,74.40
2019-03-24T00:20:31.076Z,74.16
2019-03-24T00:21:31.052Z,74.60
2019-03-24T00:22:31.058Z,74.80
2019-03-24T00:23:31.030Z,75.01
2019-03-24T00:24:31.031Z,74.71
2019-03-24T00:25:31.020Z,75.18
2019-03-24T00:26:31.005Z,75.08
2019-03-24T00:27:30.996Z,75.39
2019-03-24T00:28:30.985Z,75.94
2019-03-24T00:29:30.972Z,75.90
2019-03-24T00:30:30.970Z,76.32
2019-03-24T00:31:30.970Z,76.56
2019-03-24T00:32:30.967Z,76.32
2019-03-24T00:33:31.088Z,77.55
2019-03-24T00:34:30.916Z,77.25
2019-03-24T00:35:30.906Z,77.25
2019-03-24T00:36:30.899Z,78.17
2019-03-24T00:37:30.882Z,78.48
2019-03-24T00:38:30.898Z,78.48
2019-03-24T00:39:30.874Z,78.38
2019-03-24T00:40:30.853Z,77.83
2019-03-24T00:41:30.843Z,78.17
2019-03-24T00:42:30.825Z,77.76
2019-03-24T00:43:30.823Z,77.72
2019-03-24T00:44:30.805Z,78.07
2019-03-24T00:45:36.755Z,78.48
2019-03-24T00:46:31.788Z,77.86
2019-03-24T00:47:30.774Z,78.24
2019-03-24T00:48:30.771Z,78.14
2019-03-24T00:49:30.799Z,77.86
2019-03-24T00:50:30.746Z,78.28
2019-03-24T00:51:30.730Z,78.17
2019-03-24T00:52:30.752Z,77.97
2019-03-24T00:53:30.724Z,78.58
2019-03-24T00:54:30.700Z,78.38
2019-03-24T00:55:32.240Z,78.28
2019-03-24T00:56:30.680Z,78.07
2019-03-24T00:57:30.684Z,77.86
2019-03-24T00:58:30.675Z,78.00
2019-03-24T00:59:30.658Z,78.38
2019-03-24T01:00:30.654Z,78.28
2019-03-24T01:01:30.641Z,78.41
2019-03-24T01:02:30.620Z,78.17
2019-03-24T01:03:30.615Z,78.41
2019-03-24T01:04:30.599Z,78.38
2019-03-24T01:05:30.585Z,78.31
2019-03-24T01:06:30.584Z,78.21
2019-03-24T01:07:30.578Z,78.31
2019-03-24T01:08:30.570Z,78.89
2019-03-24T01:09:30.572Z,78.28
2019-03-24T01:10:30.556Z,78.58
2019-03-24T01:11:30.526Z,78.41
2019-03-24T01:12:30.515Z,78.62
2019-03-24T01:13:30.520Z,79.24
2019-03-24T01:14:30.487Z,79.61
2019-03-24T01:15:30.490Z,79.65
2019-03-24T01:16:30.515Z,80.02
2019-03-24T01:17:30.471Z,79.75
2019-03-24T01:18:30.470Z,79.65
2019-03-24T01:19:30.435Z,79.93
2019-03-24T01:20:30.430Z,79.86
2019-03-24T01:21:30.412Z,79.82
2019-03-24T01:22:30.414Z,79.61
2019-03-24T01:23:30.429Z,80.27
2019-03-24T01:24:30.397Z,80.47
2019-03-24T01:25:30.445Z,79.75
2019-03-24T01:26:30.361Z,79.86
2019-03-24T01:27:30.359Z,79.75
2019-03-24T01:28:30.342Z,79.65
2019-03-24T01:29:30.333Z,79.75
2019-03-24T01:30:30.321Z,79.75
2019-03-24T01:31:30.307Z,80.06
2019-03-24T01:32:30.305Z,80.68
2019-03-24T01:33:30.291Z,80.68
2019-03-24T01:34:30.759Z,80.58
2019-03-24T01:35:30.283Z,81.71
2019-03-24T01:36:30.257Z,81.61
2019-03-24T01:37:30.244Z,81.26
2019-03-24T01:38:30.249Z,81.71
2019-03-24T01:39:30.231Z,81.51
2019-03-24T01:40:30.217Z,82.84
2019-03-24T01:41:30.208Z,83.26
2019-03-24T01:42:30.198Z,83.36
2019-03-24T01:43:30.201Z,83.36
2019-03-24T01:44:30.177Z,82.84
2019-03-24T01:45:30.172Z,83.77
2019-03-24T01:46:30.155Z,83.36
2019-03-24T01:47:30.144Z,83.26
2019-03-24T01:48:30.137Z,83.47
2019-03-24T01:49:30.129Z,83.36
2019-03-24T01:50:30.111Z,82.95
2019-03-24T01:51:30.103Z,83.77
2019-03-24T01:52:30.111Z,83.47
2019-03-24T01:53:30.092Z,82.64
2019-03-24T01:54:30.170Z,81.30
2019-03-24T01:55:30.052Z,81.51
2019-03-24T01:56:30.047Z,81.81
2019-03-24T01:57:30.031Z,81.40
2019-03-24T01:58:30.033Z,81.30
2019-03-24T01:59:30.038Z,81.65
2019-03-24T02:00:30.010Z,81.81
2019-03-24T02:01:29.989Z,81.03
2019-03-24T02:02:30.036Z,81.09
2019-03-24T02:03:29.979Z,80.93
2019-03-24T02:04:29.971Z,80.72
2019-03-24T02:05:29.952Z,80.30
2019-03-24T02:06:29.939Z,81.09
2019-03-24T02:07:29.936Z,81.85
2019-03-24T02:08:29.922Z,80.93
2019-03-24T02:09:29.942Z,80.62
2019-03-24T02:10:29.902Z,80.62
2019-03-24T02:11:29.943Z,80.82
2019-03-24T02:12:29.877Z,80.96
2019-03-24T02:13:29.868Z,81.85
2019-03-24T02:14:29.875Z,81.58
2019-03-24T02:15:29.853Z,81.96
2019-03-24T02:16:29.841Z,81.79
2019-03-24T02:17:29.825Z,81.48
2019-03-24T02:18:29.818Z,81.37
2019-03-24T02:19:29.807Z,81.48
2019-03-24T02:20:29.847Z,81.37
2019-03-24T02:21:29.793Z,81.37
2019-03-24T02:22:30.748Z,82.20
2019-03-24T02:23:29.764Z,81.79
2019-03-24T02:24:29.760Z,82.10
2019-03-24T02:25:29.746Z,82.30
2019-03-24T02:26:29.725Z,83.03
2019-03-24T02:27:29.723Z,82.45
2019-03-24T02:28:29.723Z,83.03
2019-03-24T02:29:29.722Z,83.44
2019-03-24T02:30:29.694Z,82.82
2019-03-24T02:31:29.672Z,82.20
2019-03-24T02:32:29.690Z,82.20
2019-03-24T02:33:29.657Z,83.33
2019-03-24T02:34:29.659Z,83.37
2019-03-24T02:35:29.642Z,83.54
2019-03-24T02:36:29.626Z,83.44
2019-03-24T02:37:29.611Z,83.37
2019-03-24T02:38:29.603Z,83.17
2019-03-24T02:39:29.620Z,83.17
2019-03-24T02:40:29.609Z,83.06
2019-03-24T02:41:29.574Z,83.17
2019-03-24T02:42:29.567Z,83.48
2019-03-24T02:43:29.548Z,83.68
2019-03-24T02:44:29.549Z,83.48
2019-03-24T02:45:29.589Z,83.48
2019-03-24T02:46:29.514Z,83.58
2019-03-24T02:47:29.582Z,83.31
2019-03-24T02:48:29.488Z,83.68
2019-03-24T02:49:29.492Z,83.17
2019-03-24T02:50:29.476Z,84.09
2019-03-24T02:51:29.475Z,83.51
2019-03-24T02:52:29.512Z,83.62
2019-03-24T02:53:29.471Z,83.99
2019-03-24T02:54:29.560Z,84.23
2019-03-24T02:55:29.419Z,83.68
2019-03-24T02:56:29.408Z,83.78
2019-03-24T02:57:29.396Z,84.34
2019-03-24T02:58:29.383Z,84.23
2019-03-24T02:59:29.372Z,84.03
2019-03-24T03:00:29.367Z,83.83
2019-03-24T03:01:29.416Z,84.23
2019-03-24T03:02:29.339Z,83.31
2019-03-24T03:03:29.341Z,83.93
2019-03-24T03:04:29.331Z,83.93
2019-03-24T03:05:29.325Z,84.03
2019-03-24T03:06:29.297Z,84.03
2019-03-24T03:07:29.285Z,83.51
2019-03-24T03:08:29.281Z,84.03
2019-03-24T03:09:29.265Z,83.83
2019-03-24T03:10:29.269Z,83.62
2019-03-24T03:11:29.265Z,83.76
2019-03-24T03:12:29.235Z,83.93
2019-03-24T03:13:29.228Z,83.97
2019-03-24T03:14:29.228Z,84.48
2019-03-24T03:15:29.206Z,84.23
2019-03-24T03:16:38.392Z,84.38
2019-03-24T03:17:30.190Z,84.17
2019-03-24T03:18:29.170Z,84.59
2019-03-24T03:19:29.167Z,85.00
2019-03-24T03:20:29.172Z,84.89
2019-03-24T03:21:29.134Z,85.00
2019-03-24T03:22:29.132Z,85.21
2019-03-24T03:23:29.153Z,85.41
2019-03-24T03:24:29.109Z,85.72
2019-03-24T03:25:29.100Z,85.41
2019-03-24T03:26:29.094Z,85.41
2019-03-24T03:27:29.076Z,85.31
2019-03-24T03:28:29.063Z,85.72
2019-03-24T03:29:29.087Z,85.72
2019-03-24T03:30:29.054Z,86.03
2019-03-24T03:31:29.054Z,85.93
2019-03-24T03:32:29.050Z,85.41
2019-03-24T03:33:29.010Z,85.83
2019-03-24T03:34:29.049Z,86.03
2019-03-24T03:35:28.992Z,86.13
2019-03-24T03:36:29.004Z,85.93
2019-03-24T03:37:29.136Z,86.03
2019-03-24T03:38:28.972Z,86.03
2019-03-24T03:39:29.042Z,85.93
2019-03-24T03:40:28.950Z,86.03
2019-03-24T03:41:28.939Z,86.03
2019-03-24T03:42:28.923Z,85.93
2019-03-24T03:43:28.904Z,86.03
2019-03-24T03:44:29.007Z,86.24
2019-03-24T03:45:28.978Z,86.24
2019-03-24T03:46:28.891Z,86.13
2019-03-24T03:47:28.875Z,86.34
2019-03-24T03:48:28.853Z,86.44
2019-03-24T03:49:28.838Z,86.34
2019-03-24T03:50:28.827Z,86.34
2019-03-24T03:51:28.897Z,86.34
2019-03-24T03:52:28.811Z,86.65
2019-03-24T03:53:28.799Z,86.34
2019-03-24T03:54:28.815Z,86.13
2019-03-24T03:55:28.774Z,86.44
2019-03-24T03:56:28.793Z,86.34
2019-03-24T03:57:28.755Z,86.44
2019-03-24T03:58:28.739Z,86.55
2019-03-24T03:59:28.739Z,86.55
2019-03-24T04:00:28.723Z,86.76
2019-03-24T04:01:28.709Z,86.24
2019-03-24T04:02:28.696Z,86.38
2019-03-24T04:03:28.699Z,86.34
2019-03-24T04:04:28.680Z,86.24
2019-03-24T04:05:28.675Z,86.24
2019-03-24T04:06:28.656Z,86.34
2019-03-24T04:07:28.642Z,86.44
2019-03-24T04:08:28.631Z,86.44
2019-03-24T04:09:28.625Z,86.24
2019-03-24T04:10:28.621Z,86.34
2019-03-24T04:11:28.635Z,86.86
2019-03-24T04:12:28.588Z,86.24
2019-03-24T04:13:28.579Z,86.44
2019-03-24T04:14:28.647Z,86.65
2019-03-24T04:15:28.603Z,86.24
2019-03-24T04:16:28.557Z,86.34
2019-03-24T04:17:28.551Z,87.07
2019-03-24T04:18:28.600Z,86.76
2019-03-24T04:19:28.527Z,86.76
2019-03-24T04:20:28.540Z,86.76
2019-03-24T04:21:28.513Z,86.86
2019-03-24T04:22:28.529Z,87.17
2019-03-24T04:23:28.471Z,87.07
2019-03-24T04:24:28.621Z,87.48
2019-03-24T04:25:28.478Z,87.27
2019-03-24T04:26:28.441Z,87.07
2019-03-24T04:27:28.449Z,87.00
2019-03-24T04:28:28.422Z,87.00
2019-03-24T04:29:28.460Z,87.10
2019-03-24T04:30:28.402Z,87.10
2019-03-24T04:31:28.383Z,87.00
2019-03-24T04:32:28.386Z,86.96
2019-03-24T04:33:28.366Z,87.31
2019-03-24T04:34:28.469Z,87.62
2019-03-24T04:35:28.353Z,87.10
2019-03-24T04:36:28.389Z,87.10
2019-03-24T04:37:28.738Z,87.10
2019-03-24T04:38:28.334Z,87.62
2019-03-24T04:39:28.297Z,87.52
2019-03-24T04:40:28.304Z,87.89
2019-03-24T04:41:28.344Z,87.58
2019-03-24T04:42:28.302Z,87.10
2019-03-24T04:43:28.266Z,87.93
2019-03-24T04:44:28.246Z,87.41
2019-03-24T04:45:28.240Z,87.41
2019-03-24T04:46:28.220Z,87.10
2019-03-24T04:47:28.267Z,86.69
2019-03-24T04:48:28.204Z,87.10
2019-03-24T04:49:28.192Z,86.59
2019-03-24T04:50:28.221Z,87.21
2019-03-24T04:51:28.170Z,86.90
2019-03-24T04:52:28.236Z,87.41
2019-03-24T04:53:28.164Z,87.41
2019-03-24T04:54:28.188Z,87.21
2019-03-24T04:55:28.146Z,87.31
2019-03-24T04:56:28.114Z,86.79
2019-03-24T04:57:28.148Z,87.00
2019-03-24T04:58:28.314Z,86.79
2019-03-24T04:59:28.086Z,87.15
2019-03-24T05:00:28.072Z,86.59
2019-03-24T05:01:28.079Z,87.62
2019-03-24T05:02:28.061Z,87.35
2019-03-24T05:03:28.305Z,87.04
2019-03-24T05:04:28.132Z,87.00
2019-03-24T05:05:28.021Z,87.15
2019-03-24T05:06:28.007Z,87.46
2019-03-24T05:07:28.020Z,87.46
2019-03-24T05:08:27.990Z,87.15
2019-03-24T05:09:27.981Z,87.25
2019-03-24T05:10:27.967Z,87.46
2019-03-24T05:11:27.965Z,87.56
2019-03-24T05:12:27.975Z,86.94
2019-03-24T05:13:27.936Z,86.94
2019-03-24T05:14:28.074Z,86.52
2019-03-24T05:15:27.941Z,86.83
2019-03-24T05:16:27.932Z,86.42
2019-03-24T05:17:27.999Z,86.42
2019-03-24T05:18:27.948Z,87.25
2019-03-24T05:19:27.873Z,86.83
2019-03-24T05:20:27.985Z,87.56
2019-03-24T05:21:27.849Z,87.35
2019-03-24T05:22:27.866Z,87.15
2019-03-24T05:23:27.831Z,87.04
2019-03-24T05:24:27.818Z,87.04
2019-03-24T05:25:27.809Z,87.15
2019-03-24T05:26:27.806Z,87.35
2019-03-24T05:27:27.820Z,87.04
2019-03-24T05:28:28.240Z,87.35
2019-03-24T05:29:27.765Z,87.39
2019-03-24T05:30:27.750Z,87.46
2019-03-24T05:31:27.748Z,87.39
2019-03-24T05:32:27.728Z,87.04
2019-03-24T05:33:27.740Z,87.04
2019-03-24T05:34:27.713Z,87.49
2019-03-24T05:35:27.696Z,87.49
2019-03-24T05:36:27.691Z,87.39
2019-03-24T05:37:27.676Z,87.29
2019-03-24T05:38:28.279Z,86.77
2019-03-24T05:39:27.668Z,87.35
2019-03-24T05:40:27.661Z,86.98
2019-03-24T05:41:27.630Z,87.39
2019-03-24T05:42:27.629Z,87.29
2019-03-24T05:43:27.621Z,87.49
2019-03-24T05:44:27.603Z,88.32
2019-03-24T05:45:27.590Z,88.53
2019-03-24T05:46:27.590Z,88.84
2019-03-24T05:47:36.793Z,88.70
2019-03-24T05:48:28.569Z,88.49
2019-03-24T05:49:27.544Z,88.49
2019-03-24T05:50:27.551Z,88.90
2019-03-24T05:51:27.523Z,88.80
2019-03-24T05:52:27.720Z,89.22
2019-03-24T05:53:27.549Z,89.11
2019-03-24T05:54:27.501Z,89.11
2019-03-24T05:55:27.483Z,89.22
2019-03-24T05:56:27.472Z,89.22
2019-03-24T05:57:27.477Z,89.42
2019-03-24T05:58:27.466Z,89.52
2019-03-24T05:59:27.620Z,89.42
2019-03-24T06:00:27.541Z,89.32
2019-03-24T06:01:27.418Z,89.38
2019-03-24T06:02:27.417Z,89.28
2019-03-24T06:03:27.749Z,89.28
2019-03-24T06:04:27.385Z,89.17
2019-03-24T06:05:27.403Z,89.28
2019-03-24T06:06:27.453Z,89.17
2019-03-24T06:07:27.354Z,89.28
2019-03-24T06:08:27.418Z,89.28
2019-03-24T06:09:27.431Z,89.38
2019-03-24T06:10:27.325Z,89.17
2019-03-24T06:11:27.311Z,89.28
2019-03-24T06:12:27.308Z,89.48
2019-03-24T06:13:27.318Z,89.17
2019-03-24T06:14:27.278Z,89.07
2019-03-24T06:15:28.248Z,89.44
2019-03-24T06:16:27.337Z,89.44
2019-03-24T06:17:27.245Z,89.44
2019-03-24T06:18:27.350Z,89.23
2019-03-24T06:19:27.300Z,89.65
2019-03-24T06:20:27.217Z,89.34
2019-03-24T06:21:27.204Z,89.54
2019-03-24T06:22:27.209Z,89.65
2019-03-24T06:23:27.206Z,89.65
2019-03-24T06:24:27.173Z,89.44
2019-03-24T06:25:27.262Z,89.13
2019-03-24T06:26:27.376Z,89.23
2019-03-24T06:27:27.148Z,89.09
2019-03-24T06:28:27.138Z,88.98
2019-03-24T06:29:27.121Z,88.98
2019-03-24T06:30:27.121Z,89.19
2019-03-24T06:31:27.110Z,89.40
2019-03-24T06:32:27.104Z,88.98
2019-03-24T06:33:27.076Z,89.29
2019-03-24T06:34:27.069Z,88.98
2019-03-24T06:35:27.237Z,89.46
2019-03-24T06:36:27.042Z,89.15
2019-03-24T06:37:27.033Z,89.36
2019-03-24T06:38:27.028Z,89.25
2019-03-24T06:39:27.060Z,89.15
2019-03-24T06:40:27.008Z,88.84
2019-03-24T06:41:27.208Z,88.84
2019-03-24T06:42:27.375Z,88.64
2019-03-24T06:43:27.092Z,88.70
2019-03-24T06:44:27.232Z,88.70
2019-03-24T06:45:28.692Z,88.29
2019-03-24T06:46:27.045Z,88.49
2019-03-24T06:47:27.130Z,88.39
2019-03-24T06:48:26.915Z,87.98
2019-03-24T06:49:26.962Z,88.70
2019-03-24T06:50:26.939Z,87.73
2019-03-24T06:51:26.912Z,87.42
2019-03-24T06:52:26.905Z,87.73
2019-03-24T06:53:26.907Z,87.83
2019-03-24T06:54:26.858Z,87.83
2019-03-24T06:55:26.841Z,87.11
2019-03-24T06:56:26.830Z,87.42
2019-03-24T06:57:26.833Z,86.87
2019-03-24T06:58:26.813Z,87.69
2019-03-24T06:59:27.088Z,87.07
2019-03-24T07:00:26.787Z,87.38
2019-03-24T07:01:26.779Z,86.97
2019-03-24T07:02:26.764Z,86.52
2019-03-24T07:03:26.766Z,87.07
2019-03-24T07:04:26.825Z,87.34
2019-03-24T07:05:26.743Z,87.13
2019-03-24T07:06:26.772Z,86.72
2019-03-24T07:07:26.715Z,85.89
2019-03-24T07:08:26.732Z,86.27
2019-03-24T07:09:26.696Z,86.16
2019-03-24T07:10:26.684Z,86.06
2019-03-24T07:11:26.679Z,85.96
2019-03-24T07:12:26.664Z,85.65
2019-03-24T07:13:26.837Z,85.65
2019-03-24T07:14:26.652Z,85.82
2019-03-24T07:15:26.631Z,85.71
2019-03-24T07:16:26.627Z,85.61
2019-03-24T07:17:26.609Z,84.69
2019-03-24T07:18:26.597Z,84.95
2019-03-24T07:19:26.600Z,84.64
2019-03-24T07:20:26.579Z,84.64
2019-03-24T07:21:26.570Z,84.54
2019-03-24T07:22:26.560Z,84.54
2019-03-24T07:23:26.558Z,84.64
2019-03-24T07:24:26.616Z,84.34
2019-03-24T07:25:26.524Z,84.61
2019-03-24T07:26:26.523Z,84.91
2019-03-24T07:27:26.501Z,85.12
2019-03-24T07:28:26.603Z,84.50
2019-03-24T07:29:26.484Z,84.50
2019-03-24T07:30:26.484Z,83.75
2019-03-24T07:31:26.461Z,83.48
2019-03-24T07:32:26.469Z,83.64
2019-03-24T07:33:26.451Z,82.62
2019-03-24T07:34:26.446Z,83.03
2019-03-24T07:35:26.437Z,82.99
2019-03-24T07:36:26.414Z,82.27
2019-03-24T07:37:26.408Z,82.17
2019-03-24T07:38:26.391Z,81.76
2019-03-24T07:39:26.384Z,83.19
2019-03-24T07:40:26.373Z,82.33
2019-03-24T07:41:26.400Z,81.00
2019-03-24T07:42:26.360Z,80.90
2019-03-24T07:43:26.438Z,81.20
2019-03-24T07:44:26.342Z,81.10
2019-03-24T07:45:29.234Z,80.90
2019-03-24T07:46:26.307Z,80.65
2019-03-24T07:47:26.291Z,80.24
2019-03-24T07:48:26.282Z,80.35
2019-03-24T07:49:26.283Z,81.06
2019-03-24T07:50:26.646Z,80.86
2019-03-24T07:51:26.257Z,80.41
2019-03-24T07:52:26.235Z,79.90
2019-03-24T07:53:26.228Z,80.51
2019-03-24T07:54:26.325Z,79.45
2019-03-24T07:55:26.223Z,79.75
2019-03-24T07:56:26.240Z,78.74
2019-03-24T07:57:26.209Z,77.71
2019-03-24T07:58:26.171Z,77.06
2019-03-24T07:59:26.159Z,78.08
2019-03-24T08:00:26.165Z,77.77
2019-03-24T08:01:26.139Z,76.92
2019-03-24T08:02:26.129Z,76.10
2019-03-24T08:03:26.170Z,75.99
2019-03-24T08:04:26.100Z,75.76
2019-03-24T08:05:26.132Z,75.86
2019-03-24T08:06:26.085Z,75.65
2019-03-24T08:07:26.067Z,75.86
2019-03-24T08:08:26.060Z,75.52
2019-03-24T08:09:26.044Z,75.48
2019-03-24T08:10:26.037Z,74.15
2019-03-24T08:11:26.030Z,73.03
2019-03-24T08:12:26.060Z,73.61
2019-03-24T08:13:26.005Z,73.40
2019-03-24T08:14:26.036Z,73.61
2019-03-24T08:15:25.990Z,71.97
2019-03-24T08:16:25.968Z,72.34
2019-03-24T08:17:25.963Z,70.81
2019-03-24T08:18:30.098Z,69.96
2019-03-24T08:19:26.236Z,70.68
2019-03-24T08:20:25.938Z,70.68
2019-03-24T08:21:25.920Z,70.23
2019-03-24T08:22:25.956Z,69.73
2019-03-24T08:23:25.913Z,69.59
2019-03-24T08:24:25.883Z,69.38
2019-03-24T08:25:25.890Z,69.05
2019-03-24T08:26:25.896Z,68.23
2019-03-24T08:27:25.852Z,67.72
2019-03-24T08:28:25.848Z,68.40
2019-03-24T08:29:25.833Z,69.83
2019-03-24T08:30:25.825Z,68.40
2019-03-24T08:31:25.819Z,67.35
2019-03-24T08:32:25.798Z,67.96
2019-03-24T08:33:25.790Z,66.33
2019-03-24T08:34:25.790Z,66.23
2019-03-24T08:35:25.770Z,67.02
2019-03-24T08:36:25.763Z,66.61
2019-03-24T08:37:25.746Z,65.56
2019-03-24T08:38:26.391Z,65.16
2019-03-24T08:39:25.732Z,66.38
2019-03-24T08:40:25.712Z,64.41
2019-03-24T08:41:25.723Z,64.31
2019-03-24T08:42:25.689Z,65.43
2019-03-24T08:43:25.678Z,64.28
2019-03-24T08:44:25.673Z,63.46
2019-03-24T08:45:25.661Z,62.96
2019-03-24T08:46:25.662Z,63.97
2019-03-24T08:47:25.638Z,64.96
2019-03-24T08:48:25.864Z,65.06
2019-03-24T08:49:25.632Z,63.94
2019-03-24T08:50:25.604Z,64.86
2019-03-24T08:51:25.604Z,63.84
2019-03-24T08:52:25.586Z,65.36
2019-03-24T08:53:25.570Z,64.01
2019-03-24T08:54:25.571Z,62.29
2019-03-24T08:55:25.561Z,63.91
2019-03-24T08:56:25.585Z,62.59
2019-03-24T08:57:25.560Z,60.76
2019-03-24T08:58:25.519Z,60.66
2019-03-24T08:59:25.511Z,63.91
2019-03-24T09:00:30.537Z,63.78
2019-03-24T09:01:26.500Z,62.97
2019-03-24T09:02:25.480Z,62.36
2019-03-24T09:03:25.527Z,63.28
2019-03-24T09:04:25.467Z,61.55
2019-03-24T09:05:25.520Z,60.63
2019-03-24T09:06:25.490Z,62.33
2019-03-24T09:07:25.470Z,62.43
2019-03-24T09:08:25.407Z,62.43
2019-03-24T09:09:25.411Z,60.30
2019-03-24T09:10:25.392Z,62.23
2019-03-24T09:11:31.145Z,60.37
2019-03-24T09:12:26.369Z,58.65
2019-03-24T09:13:25.361Z,60.68
2019-03-24T09:14:25.345Z,60.07
2019-03-24T09:15:25.349Z,60.37
2019-03-24T09:16:25.335Z,58.82
2019-03-24T09:17:25.424Z,60.04
2019-03-24T09:18:25.302Z,59.94
2019-03-24T09:19:25.294Z,58.72
2019-03-24T09:20:25.280Z,60.21
2019-03-24T09:21:25.283Z,60.11
2019-03-24T09:22:25.262Z,58.39
2019-03-24T09:23:25.263Z,58.87
2019-03-24T09:24:25.240Z,59.58
2019-03-24T09:25:25.338Z,60.08
2019-03-24T09:26:25.232Z,58.34
2019-03-24T09:27:25.208Z,58.13
2019-03-24T09:28:25.199Z,57.80
2019-03-24T09:29:25.193Z,55.27
2019-03-24T09:30:25.179Z,56.46
2019-03-24T09:31:25.178Z,56.46
2019-03-24T09:32:25.154Z,55.62
2019-03-24T09:33:25.145Z,55.82
2019-03-24T09:34:25.142Z,58.36
2019-03-24T09:35:25.124Z,56.10
2019-03-24T09:36:25.140Z,55.09
2019-03-24T09:37:25.134Z,54.56
2019-03-24T09:38:25.454Z,54.36
2019-03-24T09:39:25.096Z,57.46
2019-03-24T09:40:25.112Z,54.23
2019-03-24T09:41:25.070Z,53.32
2019-03-24T09:42:25.050Z,54.43
2019-03-24T09:43:25.037Z,54.61
2019-03-24T09:44:25.045Z,56.02
2019-03-24T09:45:25.018Z,52.76
2019-03-24T09:46:25.118Z,50.95
2019-03-24T09:47:24.994Z,51.84
2019-03-24T09:48:24.986Z,51.31
2019-03-24T09:49:24.976Z,50.90
2019-03-24T09:50:24.965Z,50.17
2019-03-24T09:51:25.005Z,49.87
2019-03-24T09:52:24.939Z,46.55
2019-03-24T09:53:24.930Z,47.63
2019-03-24T09:54:24.932Z,48.74
2019-03-24T09:55:24.911Z,48.34
2019-03-24T09:56:24.897Z,48.44
2019-03-24T09:57:24.888Z,49.42
2019-03-24T09:58:24.876Z,48.32
2019-03-24T09:59:24.865Z,48.11
2019-03-24T10:00:24.854Z,48.09
2019-03-24T10:01:24.844Z,46.38
2019-03-24T10:02:24.873Z,49.70
2019-03-24T10:03:24.822Z,46.66
2019-03-24T10:04:24.813Z,45.35
2019-03-24T10:05:24.810Z,44.65
2019-03-24T10:06:24.817Z,44.95
2019-03-24T10:07:24.788Z,44.63
2019-03-24T10:08:24.773Z,44.32
2019-03-24T10:09:24.785Z,45.23
2019-03-24T10:10:24.751Z,44.91
2019-03-24T10:11:24.745Z,45.01
2019-03-24T10:12:24.741Z,45.81
2019-03-24T10:13:24.717Z,46.92
2019-03-24T10:14:24.709Z,44.48
2019-03-24T10:15:24.787Z,40.99
2019-03-24T10:16:24.731Z,43.30
2019-03-24T10:17:24.691Z,40.77
2019-03-24T10:18:24.680Z,40.75
2019-03-24T10:19:24.667Z,40.25
2019-03-24T10:20:24.657Z,40.05
2019-03-24T10:21:24.747Z,39.95
2019-03-24T10:22:24.629Z,40.47
2019-03-24T10:23:24.613Z,40.99
2019-03-24T10:24:24.608Z,41.89
2019-03-24T10:25:24.602Z,40.39
2019-03-24T10:26:24.583Z,40.71
2019-03-24T10:27:24.578Z,40.73
2019-03-24T10:28:24.567Z,42.05
2019-03-24T10:29:24.580Z,43.60
2019-03-24T10:30:24.562Z,43.20
2019-03-24T10:31:24.538Z,43.10
2019-03-24T10:32:24.517Z,44.71
2019-03-24T10:33:24.511Z,43.42
2019-03-24T10:34:24.497Z,44.63
2019-03-24T10:35:24.507Z,44.73
2019-03-24T10:36:24.504Z,43.82
2019-03-24T10:37:24.497Z,43.92
2019-03-24T10:38:24.473Z,43.52
2019-03-24T10:39:24.448Z,43.30
2019-03-24T10:40:28.894Z,42.49
2019-03-24T10:41:24.422Z,43.58
2019-03-24T10:42:24.417Z,43.48
2019-03-24T10:43:24.399Z,44.26
2019-03-24T10:44:24.449Z,42.03
2019-03-24T10:45:24.436Z,42.74
2019-03-24T10:46:24.391Z,42.32
2019-03-24T10:47:24.399Z,42.40
2019-03-24T10:48:33.353Z,40.67
2019-03-24T10:49:25.486Z,41.17
2019-03-24T10:50:24.365Z,41.05
2019-03-24T10:51:24.463Z,39.55
2019-03-24T10:52:24.317Z,39.33
2019-03-24T10:53:24.303Z,40.33
2019-03-24T10:54:24.282Z,39.31
2019-03-24T10:55:24.318Z,38.09
2019-03-24T10:56:24.279Z,38.68
2019-03-24T10:57:24.282Z,36.78
2019-03-24T10:58:24.382Z,36.16
2019-03-24T10:59:24.249Z,36.66
2019-03-24T11:00:24.234Z,37.76
2019-03-24T11:01:24.212Z,36.56
2019-03-24T11:02:24.325Z,37.24
2019-03-24T11:03:24.194Z,36.54
2019-03-24T11:04:24.182Z,35.64
2019-03-24T11:05:24.168Z,36.94
2019-03-24T11:06:24.155Z,36.63
2019-03-24T11:07:24.157Z,35.71
2019-03-24T11:08:24.140Z,35.19
2019-03-24T11:09:24.128Z,34.88
2019-03-24T11:10:24.124Z,34.36
2019-03-24T11:11:24.124Z,34.94
2019-03-24T11:12:24.108Z,34.73
2019-03-24T11:13:24.101Z,32.82
2019-03-24T11:14:24.078Z,33.02
2019-03-24T11:15:24.127Z,32.51
2019-03-24T11:16:24.061Z,33.59
2019-03-24T11:17:24.114Z,32.78
2019-03-24T11:18:24.103Z,32.56
2019-03-24T11:19:34.885Z,33.24
2019-03-24T11:20:25.013Z,32.35
2019-03-24T11:21:24.006Z,32.33
2019-03-24T11:22:23.998Z,31.32
2019-03-24T11:23:23.992Z,31.60
2019-03-24T11:24:23.971Z,30.70
2019-03-24T11:25:23.963Z,30.88
2019-03-24T11:26:23.955Z,30.29
2019-03-24T11:27:23.977Z,28.59
2019-03-24T11:28:23.933Z,29.50
2019-03-24T11:29:23.922Z,30.18
2019-03-24T11:30:23.910Z,28.78
2019-03-24T11:31:23.902Z,28.97
2019-03-24T11:32:23.905Z,28.67
2019-03-24T11:33:23.878Z,27.59
2019-03-24T11:34:24.008Z,28.79
2019-03-24T11:35:23.854Z,28.59
2019-03-24T11:36:23.843Z,28.18
2019-03-24T11:37:23.842Z,28.67
2019-03-24T11:38:23.841Z,27.00
2019-03-24T11:39:23.817Z,27.39
2019-03-24T11:40:23.824Z,29.27
2019-03-24T11:41:23.817Z,28.88
2019-03-24T11:42:23.785Z,28.56
2019-03-24T11:43:23.776Z,29.46
2019-03-24T11:44:23.764Z,28.55
2019-03-24T11:45:23.765Z,28.34
2019-03-24T11:46:23.750Z,27.15
2019-03-24T11:47:26.935Z,27.83
2019-03-24T11:48:23.740Z,27.65
2019-03-24T11:49:23.718Z,26.96
2019-03-24T11:50:23.705Z,27.45
2019-03-24T11:51:23.740Z,26.28
2019-03-24T11:52:23.682Z,26.98
2019-03-24T11:53:23.674Z,27.77
2019-03-24T11:54:23.664Z,29.27
2019-03-24T11:55:23.656Z,29.66
2019-03-24T11:56:23.666Z,29.09
2019-03-24T11:57:23.635Z,29.69
2019-03-24T11:58:23.630Z,29.44
2019-03-24T11:59:23.630Z,30.69
2019-03-24T12:00:23.610Z,32.64
2019-03-24T12:01:23.595Z,34.36
2019-03-24T12:02:23.585Z,33.76
2019-03-24T12:03:25.460Z,33.53
2019-03-24T12:04:23.569Z,32.81
2019-03-24T12:05:23.552Z,32.48
2019-03-24T12:06:23.543Z,32.66
2019-03-24T12:07:23.564Z,31.05
2019-03-24T12:08:23.553Z,29.74
2019-03-24T12:09:23.526Z,29.81
2019-03-24T12:10:23.523Z,28.72
2019-03-24T12:11:23.531Z,28.90
2019-03-24T12:12:23.478Z,29.69
2019-03-24T12:13:23.530Z,29.69
2019-03-24T12:14:23.466Z,28.69
2019-03-24T12:15:23.448Z,28.88
2019-03-24T12:16:23.436Z,26.21
2019-03-24T12:17:23.429Z,28.61
2019-03-24T12:18:23.507Z,28.21
2019-03-24T12:19:23.421Z,28.90
2019-03-24T12:20:23.393Z,28.32
2019-03-24T12:21:23.389Z,29.43
2019-03-24T12:22:23.374Z,30.53
2019-03-24T12:23:23.365Z,29.74
2019-03-24T12:24:23.359Z,30.04
2019-03-24T12:25:23.394Z,31.13
2019-03-24T12:26:23.330Z,29.85
2019-03-24T12:27:23.335Z,30.68
2019-03-24T12:28:23.322Z,30.49
2019-03-24T12:29:23.357Z,31.77
2019-03-24T12:30:23.292Z,32.18
2019-03-24T12:31:23.279Z,32.18
2019-03-24T12:32:24.253Z,32.38
2019-03-24T12:33:23.274Z,31.68
2019-03-24T12:34:23.262Z,31.88
2019-03-24T12:35:23.240Z,32.29
2019-03-24T12:36:23.237Z,31.50
2019-03-24T12:37:23.230Z,32.59
2019-03-24T12:38:23.236Z,31.81
2019-03-24T12:39:23.287Z,32.41
2019-03-24T12:40:23.194Z,32.72
2019-03-24T12:41:23.229Z,32.54
2019-03-24T12:42:23.185Z,32.65
2019-03-24T12:43:23.165Z,32.26
2019-03-24T12:44:23.176Z,33.45
2019-03-24T12:45:23.147Z,33.07
2019-03-24T12:46:23.135Z,32.50
2019-03-24T12:47:23.123Z,32.32
2019-03-24T12:48:23.201Z,34.51
2019-03-24T12:49:23.188Z,35.71
2019-03-24T12:50:31.436Z,36.32
2019-03-24T12:51:24.084Z,36.72
2019-03-24T12:52:23.072Z,36.15